Latest Coastal Weather Observations for Lombadina

IDW60701

Issued at 9:43 pm WST Monday 4 May 2026 (issued every 10 minutes, with the page automatically refreshed every 10 minutes)

About coastal observations | Map of coastal stations | Coastal observations for WA | Marine services | Other Formats
Station Details ID: 503016 Name: LOMBADINA AIRSTRIP Lat: -16.52 Lon: 122.92 Height: 41.93 m
Data from the previous 72 hours. | See also: Recent months for locations in Western Australia
Date/Time
WST
Wind Sea
Height
m
Swell Vis
km
Cloud Weather Temp
°C
Press
MSL
hPa
Rain since
9am
mm
Dir  Spd
kts
Gust
kts
Height
m
Period
s
Dir
04/09:30pm SSE 9 12 - - - - 10 Clear - 28.0 1013.3 0.0
04/09:00pm SSE 8 12 - - - - 10 Partly cloudy - 28.3 1013.4 0.0
04/08:30pm SSE 7 10 - - - - 10 Cloudy - 28.0 1013.3 0.0
04/08:00pm SSE 7 11 - - - - 10 Partly cloudy - 28.1 1013.1 0.0
04/07:30pm SSE 6 10 - - - - 10 Mostly clear - 28.1 1012.8 0.0
04/07:00pm SSE 7 11 - - - - 10 - - 28.5 1012.4 0.0
04/06:30pm SSE 5 7 - - - - 10 - - 28.7 1012.1 0.0
04/06:00pm SSE 5 7 - - - - 10 - - 29.1 1011.9 0.0
04/05:30pm SSE 5 6 - - - - 10 - - 29.7 1011.5 0.0
04/05:00pm SSE 5 7 - - - - 10 - - 31.1 1011.1 0.0
04/04:30pm SE 8 12 - - - - 10 - - 31.9 1010.8 0.0
04/04:00pm SE 9 14 - - - - 10 - - 32.4 1010.8 0.0
04/03:30pm SE 10 15 - - - - 10 - - 32.6 1010.7 0.0
04/03:00pm SE 11 18 - - - - 10 - - 32.7 1010.8 0.0
04/02:30pm SE 11 18 - - - - 10 - - 32.5 1010.8 0.0
04/02:00pm SE 10 17 - - - - 10 - - 32.4 1011.0 0.0
04/01:30pm SE 12 17 - - - - 10 - - 31.7 1011.4 0.0
04/01:00pm SE 12 18 - - - - 10 - - 31.4 1011.7 0.0
04/12:30pm SE 12 22 - - - - 10 - - 31.1 1012.4 0.0
04/12:00pm SE 13 17 - - - - 10 - - 30.4 1012.7 0.0
04/11:30am SE 11 18 - - - - 10 - - 30.1 1013.3 0.0
04/11:00am SE 13 21 - - - - 10 - - 29.4 1013.7 0.0
04/10:30am SE 12 19 - - - - 10 - - 29.1 1014.0 0.0
04/10:00am SE 11 18 - - - - 10 - - 28.6 1014.4 0.0
04/09:30am SE 11 19 - - - - 10 - - 28.1 1014.6 0.0
04/09:00am SE 12 20 - - - - 10 - - 27.3 1014.4 0.0
04/08:30am SE 9 16 - - - - 10 - - 27.0 1014.3 0.0
04/08:00am SE 11 16 - - - - 10 - - 25.9 1014.2 0.0
04/07:30am SE 8 13 - - - - 10 - - 25.1 1014.1 0.0
04/07:00am SE 8 13 - - - - 10 - - 24.3 1013.7 0.0
04/06:30am SE 8 12 - - - - 10 - - 23.9 1013.5 0.0
04/06:00am SE 7 14 - - - - 10 - - 23.9 1013.1 0.0
04/05:30am SE 8 13 - - - - 10 Mostly clear - 24.1 1012.7 0.0
04/05:00am SSE 8 12 - - - - 10 - - 24.4 1012.6 0.0
04/04:30am SE 8 11 - - - - 10 - - 24.7 1012.3 0.0
04/04:00am SSE 7 12 - - - - 10 - - 25.0 1012.1 0.0
04/03:30am SSE 8 13 - - - - 10 Partly cloudy - 25.5 1012.3 0.0
04/03:00am SSE 8 13 - - - - 10 Mostly cloudy - 26.0 1012.4 0.0
04/02:30am SSE 8 12 - - - - 10 Partly cloudy - 26.0 1012.0 0.0
04/02:00am SSE 7 9 - - - - 10 - - 26.0 1012.1 0.0
04/01:30am SSE 7 10 - - - - 10 Partly cloudy - 26.2 1012.0 0.0
04/01:00am S 6 9 - - - - 10 - - 25.7 1012.3 0.0
04/12:30am S 4 5 - - - - 10 - - 23.7 1012.4 0.0
04/12:00am SSW 4 6 - - - - 10 - - 24.2 1012.7 0.0
 
Date/Time
WST
Wind Sea
Height
m
Swell Vis
km
Cloud Weather Temp
°C
Press
MSL
hPa
Rain since
9am
mm
Dir  Spd
kts
Gust
kts
Height
m
Period
s
Dir
03/11:30pm SW 3 5 - - - - 10 - - 24.2 1012.8 0.0
03/11:00pm SW 4 5 - - - - 10 - - 25.1 1013.0 0.0
03/10:30pm SW 4 5 - - - - 10 - - 25.1 1013.1 0.0
03/10:00pm SW 4 6 - - - - 10 - - 25.4 1012.9 0.0
03/09:30pm SW 4 5 - - - - 10 - - 25.6 1013.0 0.0
03/09:00pm SW 4 6 - - - - 10 - - 26.1 1012.9 0.0
03/08:30pm SW 5 7 - - - - 10 - - 26.4 1012.9 0.0
03/08:00pm SW 5 6 - - - - 10 - - 26.4 1012.6 0.0
03/07:30pm SW 4 6 - - - - 10 - - 26.5 1012.4 0.0
03/07:00pm SW 4 5 - - - - 10 - - 26.3 1011.9 0.0
03/06:30pm SSW 4 5 - - - - 10 - - 26.2 1011.4 0.0
03/06:00pm SE 3 4 - - - - 10 - - 27.2 1011.0 0.0
03/05:30pm SE 3 4 - - - - 10 - - 29.1 1010.8 0.0
03/05:00pm ESE 4 5 - - - - 10 - - 30.5 1010.6 0.0
03/04:30pm ESE 5 6 - - - - 10 - - 31.5 1010.5 0.0
03/04:00pm ESE 5 7 - - - - 10 - - 32.0 1010.3 0.0
03/03:30pm ESE 5 8 - - - - 10 - - 32.6 1010.4 0.0
03/03:00pm E 6 9 - - - - 10 - - 32.4 1010.5 0.0
03/02:30pm ESE 7 11 - - - - 10 - - 31.8 1010.6 0.0
03/02:00pm SE 6 9 - - - - 10 - - 32.0 1010.9 0.0
03/01:30pm SE 7 11 - - - - 10 - - 31.7 1011.2 0.0
03/01:00pm ESE 8 11 - - - - 10 - - 31.2 1011.5 0.0
03/12:30pm SE 8 13 - - - - 10 - - 30.5 1011.7 0.0
03/12:00pm SE 9 13 - - - - 10 - - 29.9 1012.3 0.0
03/11:30am ESE 9 13 - - - - 10 - - 29.7 1012.7 0.0
03/11:00am ESE 9 15 - - - - 10 - - 29.4 1013.2 0.0
03/10:30am ESE 11 17 - - - - 10 - - 28.8 1013.6 0.0
03/10:00am SE 11 17 - - - - 10 - - 28.5 1013.8 0.0
03/09:30am ESE 9 16 - - - - 10 - - 28.4 1013.9 0.0
03/09:00am SE 9 15 - - - - 10 - - 27.8 1013.8 0.0
03/08:30am SE 8 13 - - - - 10 - - 27.2 1013.5 0.0
03/08:00am SE 7 12 - - - - 10 - - 26.3 1013.4 0.0
03/07:30am SE 8 14 - - - - 10 - - 25.6 1013.1 0.0
03/07:00am SE 7 10 - - - - 10 - - 25.0 1012.8 0.0
03/06:30am SSE 6 8 - - - - 10 - - 24.6 1012.4 0.0
03/06:00am SSE 5 9 - - - - 10 - - 24.7 1012.0 0.0
03/05:30am S 6 9 - - - - 10 - - 25.3 1011.6 0.0
03/05:00am S 5 7 - - - - 10 - - 25.0 1011.3 0.0
03/04:30am SSW 4 6 - - - - 10 - - 24.7 1011.1 0.0
03/04:00am SSW 4 5 - - - - 10 Mostly clear - 24.8 1010.9 0.0
03/03:30am SSW 4 6 - - - - 10 Mostly clear - 24.9 1010.8 0.0
03/03:00am SW 4 6 - - - - 10 - - 24.7 1010.9 0.0
03/02:30am SSW 4 6 - - - - 10 - - 24.9 1010.8 0.0
03/02:00am SW 5 6 - - - - 10 - - 25.2 1010.9 0.0
03/01:30am SW 5 8 - - - - 10 - - 25.3 1010.8 0.0
03/01:00am SW 5 7 - - - - 10 - - 25.2 1011.0 0.0
03/12:30am SW 5 6 - - - - 10 - - 25.0 1011.2 0.0
03/12:00am SW 5 6 - - - - 10 - - 25.1 1011.4 0.0
 
Date/Time
WST
Wind Sea
Height
m
Swell Vis
km
Cloud Weather Temp
°C
Press
MSL
hPa
Rain since
9am
mm
Dir  Spd
kts
Gust
kts
Height
m
Period
s
Dir
02/11:30pm SW 4 6 - - - - 10 - - 25.5 1011.8 0.0
02/11:00pm SW 5 7 - - - - 10 - - 25.6 1011.9 0.0
02/10:30pm SW 5 6 - - - - 10 - - 25.7 1012.0 0.0
02/10:00pm SW 4 6 - - - - 10 - - 26.0 1012.1 0.0
02/09:30pm SW 4 6 - - - - 10 - - 26.3 1012.4 0.0
02/09:00pm SW 5 10 - - - - 10 - - 26.7 1012.4 0.0
02/08:30pm SW 5 8 - - - - 10 - - 26.7 1012.1 0.0
02/08:00pm SW 5 7 - - - - 10 - - 26.5 1011.8 0.0
02/07:30pm SW 4 6 - - - - 10 - - 26.4 1011.5 0.0
02/07:00pm SW 3 5 - - - - 10 - - 27.0 1011.0 0.0
02/06:30pm WSW 4 5 - - - - 10 - - 27.5 1010.6 0.0
02/06:00pm WSW 3 5 - - - - 10 - - 28.2 1010.4 0.0
02/05:30pm W 4 6 - - - - 10 - - 29.0 1010.1 0.0
02/05:00pm WSW 6 8 - - - - 10 - - 29.8 1009.8 0.0
02/04:30pm W 6 8 - - - - 10 - - 30.5 1009.7 0.0
02/04:00pm WNW 7 9 - - - - 10 - - 31.0 1009.6 0.0
02/03:30pm WNW 7 10 - - - - 10 - - 31.1 1009.6 0.0
02/03:00pm NW 7 10 - - - - 10 - - 31.5 1009.5 0.0
02/02:30pm NW 7 9 - - - - 10 - - 31.7 1009.8 0.0
02/02:00pm NW 7 11 - - - - 10 - - 32.3 1010.0 0.0
02/01:30pm NW 8 11 - - - - 10 - - 31.9 1010.3 0.0
02/01:00pm NW 9 11 - - - - 10 - - 32.5 1010.5 0.0
02/12:30pm NE 5 7 - - - - 10 - - 33.1 1010.8 0.0
02/12:00pm ESE 5 9 - - - - 10 - - 33.0 1011.0 0.0
02/11:30am SSW 4 5 - - - - 10 - - 32.7 1011.3 0.0
02/11:00am SE 4 8 - - - - 10 - - 32.5 1011.7 0.0
02/10:30am ESE 5 7 - - - - 10 - - 31.4 1012.3 0.0
02/10:00am S 4 6 - - - - 10 - - 31.4 1012.7 0.0
02/09:30am E 4 6 - - - - 10 - - 31.0 1013.0 0.0
02/09:00am SE 3 5 - - - - 10 - - 30.2 1013.0 0.0
02/08:30am SE 4 5 - - - - 10 - - 28.8 1012.9 0.0
02/08:00am SSE 3 5 - - - - 10 - - 27.6 1012.7 0.0
02/07:30am ESE 3 4 - - - - 10 - - 26.1 1012.4 0.0
02/07:00am SE 3 6 - - - - 10 - - 24.9 1012.0 0.0
02/06:30am SE 3 4 - - - - 10 - - 23.2 1011.5 0.0
02/06:00am SSE 4 5 - - - - 10 - - 23.1 1011.2 0.0
02/05:30am S 4 5 - - - - 10 Cloudy - 23.2 1011.2 0.0
02/05:00am S 4 5 - - - - 10 Cloudy - 23.1 1010.9 0.0
02/04:30am SSW 4 5 - - - - 10 Partly cloudy - 23.4 1010.7 0.0
02/04:00am SSW 4 6 - - - - 10 - - 23.6 1010.7 0.0
02/03:30am SSW 4 6 - - - - 10 Partly cloudy - 23.9 1010.7 0.0
02/03:00am SSW 4 6 - - - - 10 Cloudy - 24.2 1010.8 0.0
02/02:30am SSW 5 8 - - - - 10 Partly cloudy - 24.4 1010.7 0.0
02/02:00am SW 5 6 - - - - 10 Mostly clear - 24.3 1010.9 0.0
02/01:30am SSW 4 6 - - - - 10 - - 24.3 1011.1 0.0
02/01:00am SSW 4 5 - - - - 10 - - 24.4 1011.3 0.0
02/12:30am SSW 5 7 - - - - 10 - - 24.6 1011.5 0.0
02/12:00am SW 4 6 - - - - 10 - - 24.6 1011.7 0.0
 
Date/Time
WST
Wind Sea
Height
m
Swell Vis
km
Cloud Weather Temp
°C
Press
MSL
hPa
Rain since
9am
mm
Dir  Spd
kts
Gust
kts
Height
m
Period
s
Dir
01/11:30pm SSW 4 6 - - - - 10 - - 24.6 1011.9 0.0
01/11:00pm SSW 4 6 - - - - 10 - - 24.6 1012.1 0.0
01/10:30pm SSW 4 5 - - - - 10 - - 24.8 1012.3 0.0
01/10:00pm SSW 4 5 - - - - 10 - - 24.7 1012.5 0.0

Other formats

Comma delimited format used in spreadsheet applications
http://www.bom.gov.au/fwo/IDW60701/IDW60701.99206.axf

JavaScript Object Notation format (JSON) in row-major order
http://www.bom.gov.au/fwo/IDW60701/IDW60701.99206.json

Data quality

Most of these data are generated automatically and are frequently updated. Quality checks on data are not normally performed. It is possible for incorrect values to appear. Refer to information at About Latest Weather Observations and please check the disclaimer before using these data.